createdAt,value
2017-07-06T00:00:35.592Z,18.11
2017-07-06T00:01:37.459Z,18.05
2017-07-06T00:02:39.333Z,18.05
2017-07-06T00:03:53.479Z,18.00
2017-07-06T00:04:55.379Z,18.05
2017-07-06T00:05:57.272Z,18.07
2017-07-06T00:06:59.162Z,18.02
2017-07-06T00:08:00.970Z,18.03
2017-07-06T00:09:02.798Z,17.90
2017-07-06T00:10:04.671Z,17.96
2017-07-06T00:11:06.566Z,17.89
2017-07-06T00:12:08.442Z,17.96
2017-07-06T00:13:22.610Z,17.99
2017-07-06T00:14:24.481Z,17.95
2017-07-06T00:15:26.377Z,18.03
2017-07-06T00:16:28.250Z,17.96
2017-07-06T00:17:30.079Z,17.96
2017-07-06T00:18:31.886Z,17.95
2017-07-06T00:19:33.759Z,17.89
2017-07-06T00:20:35.631Z,17.93
2017-07-06T00:21:37.527Z,17.92
2017-07-06T00:22:51.672Z,17.95
2017-07-06T00:23:53.575Z,17.77
2017-07-06T00:24:55.465Z,17.78
2017-07-06T00:25:57.333Z,17.81
2017-07-06T00:26:59.144Z,17.72
2017-07-06T00:28:00.976Z,17.72
2017-07-06T00:29:02.872Z,17.66
2017-07-06T00:30:04.770Z,17.71
2017-07-06T00:31:06.664Z,17.64
2017-07-06T00:32:20.808Z,17.66
2017-07-06T00:33:22.686Z,17.56
2017-07-06T00:34:24.584Z,17.56
2017-07-06T00:35:26.480Z,17.58
2017-07-06T00:36:28.316Z,17.62
2017-07-06T00:37:30.143Z,17.59
2017-07-06T00:38:32.016Z,17.58
2017-07-06T00:39:33.913Z,17.55
2017-07-06T00:40:35.805Z,17.49
2017-07-06T00:41:49.952Z,17.48
2017-07-06T00:42:51.846Z,17.40
2017-07-06T00:43:53.744Z,17.41
2017-07-06T00:44:55.637Z,17.34
2017-07-06T00:45:57.472Z,17.37
2017-07-06T00:46:59.311Z,17.33
2017-07-06T00:48:01.195Z,17.30
2017-07-06T00:49:03.069Z,17.28
2017-07-06T00:50:04.963Z,17.22
2017-07-06T00:51:19.111Z,17.34
2017-07-06T00:52:21.010Z,17.25
2017-07-06T00:53:22.907Z,17.31
2017-07-06T00:54:24.785Z,17.31
2017-07-06T00:55:26.613Z,17.23
2017-07-06T00:56:28.418Z,17.28
2017-07-06T00:57:30.313Z,17.37
2017-07-06T00:58:32.183Z,17.26
2017-07-06T00:59:34.078Z,17.26
2017-07-06T01:00:48.244Z,17.21
2017-07-06T01:01:50.148Z,17.31
2017-07-06T01:02:52.038Z,17.22
2017-07-06T01:03:53.932Z,17.28
2017-07-06T01:04:55.732Z,17.22
2017-07-06T01:05:57.539Z,17.19
2017-07-06T01:06:59.412Z,17.19
2017-07-06T01:08:01.308Z,17.16
2017-07-06T01:09:03.177Z,17.12
2017-07-06T01:10:17.347Z,17.14
2017-07-06T01:11:19.241Z,17.07
2017-07-06T01:12:21.132Z,17.04
2017-07-06T01:13:23.007Z,17.03
2017-07-06T01:14:24.840Z,17.11
2017-07-06T01:15:26.648Z,17.14
2017-07-06T01:16:28.521Z,17.08
2017-07-06T01:17:30.395Z,17.01
2017-07-06T01:18:32.293Z,17.06
2017-07-06T01:19:46.435Z,17.07
2017-07-06T01:20:48.330Z,17.03
2017-07-06T01:21:50.205Z,17.03
2017-07-06T01:22:52.102Z,17.04
2017-07-06T01:23:53.937Z,17.00
2017-07-06T01:24:55.735Z,17.00
2017-07-06T01:25:57.611Z,17.00
2017-07-06T01:26:59.486Z,17.07
2017-07-06T01:28:01.376Z,17.12
2017-07-06T01:29:15.521Z,17.08
2017-07-06T01:30:17.390Z,17.06
2017-07-06T01:31:19.263Z,16.98
2017-07-06T01:32:21.153Z,16.96
2017-07-06T01:33:22.966Z,17.03
2017-07-06T01:34:24.798Z,17.01
2017-07-06T01:35:26.690Z,16.97
2017-07-06T01:36:28.558Z,16.94
2017-07-06T01:37:30.436Z,16.93
2017-07-06T01:38:44.609Z,16.86
2017-07-06T01:39:46.503Z,16.83
2017-07-06T01:40:48.374Z,16.79
2017-07-06T01:41:50.247Z,16.82
2017-07-06T01:42:52.059Z,16.78
2017-07-06T01:43:53.887Z,16.76
2017-07-06T01:44:55.757Z,16.73
2017-07-06T01:45:57.626Z,16.79
2017-07-06T01:46:59.526Z,16.67
2017-07-06T01:48:13.699Z,16.64
2017-07-06T01:49:15.596Z,16.64
2017-07-06T01:50:17.483Z,16.66
2017-07-06T01:51:19.402Z,16.67
2017-07-06T01:52:21.238Z,16.70
2017-07-06T01:53:23.041Z,16.60
2017-07-06T01:54:24.918Z,16.63
2017-07-06T01:55:26.819Z,16.58
2017-07-06T01:56:28.704Z,16.56
2017-07-06T01:57:42.849Z,16.43
2017-07-06T01:58:44.747Z,16.43
2017-07-06T01:59:46.635Z,16.27
2017-07-06T02:00:48.512Z,16.31
2017-07-06T02:01:50.345Z,16.27
2017-07-06T02:02:52.150Z,16.23
2017-07-06T02:03:54.024Z,16.15
2017-07-06T02:04:55.922Z,16.20
2017-07-06T02:05:57.793Z,16.27
2017-07-06T02:07:11.960Z,16.33
2017-07-06T02:08:13.836Z,16.42
2017-07-06T02:09:15.736Z,16.45
2017-07-06T02:10:17.629Z,16.42
2017-07-06T02:11:19.467Z,16.48
2017-07-06T02:12:21.270Z,16.49
2017-07-06T02:13:23.167Z,16.56
2017-07-06T02:14:25.059Z,16.56
2017-07-06T02:15:26.926Z,16.58
2017-07-06T02:16:41.074Z,16.61
2017-07-06T02:17:42.970Z,16.53
2017-07-06T02:18:44.869Z,16.56
2017-07-06T02:19:46.764Z,16.56
2017-07-06T02:20:48.595Z,16.56
2017-07-06T02:21:50.404Z,16.64
2017-07-06T02:22:52.307Z,16.58
2017-07-06T02:23:54.201Z,16.61
2017-07-06T02:24:56.103Z,16.56
2017-07-06T02:26:10.248Z,16.56
2017-07-06T02:27:12.117Z,16.49
2017-07-06T02:28:13.986Z,16.45
2017-07-06T02:29:15.882Z,16.49
2017-07-06T02:30:17.689Z,16.41
2017-07-06T02:31:19.514Z,16.41
2017-07-06T02:32:21.391Z,16.35
2017-07-06T02:33:23.259Z,16.31
2017-07-06T02:34:25.131Z,16.38
2017-07-06T02:35:39.309Z,16.41
2017-07-06T02:36:41.206Z,16.30
2017-07-06T02:37:43.149Z,16.28
2017-07-06T02:38:45.042Z,16.35
2017-07-06T02:39:46.907Z,16.39
2017-07-06T02:40:48.720Z,16.33
2017-07-06T02:41:50.601Z,16.45
2017-07-06T02:42:52.438Z,16.27
2017-07-06T02:43:54.267Z,16.30
2017-07-06T02:45:08.439Z,16.39
2017-07-06T02:46:10.336Z,16.30
2017-07-06T02:47:12.236Z,16.30
2017-07-06T02:48:14.131Z,16.28
2017-07-06T02:49:15.949Z,16.28
2017-07-06T02:50:17.782Z,16.28
2017-07-06T02:51:19.657Z,16.27
2017-07-06T02:52:21.554Z,16.25
2017-07-06T02:53:23.422Z,16.33
2017-07-06T02:54:37.576Z,16.35
2017-07-06T02:55:39.474Z,16.31
2017-07-06T02:56:41.369Z,16.41
2017-07-06T02:57:43.267Z,16.38
2017-07-06T02:58:45.105Z,16.30
2017-07-06T02:59:46.915Z,16.31
2017-07-06T03:00:48.813Z,16.35
2017-07-06T03:01:50.710Z,16.42
2017-07-06T03:02:52.611Z,16.45
2017-07-06T03:04:06.785Z,16.52
2017-07-06T03:05:08.678Z,16.38
2017-07-06T03:06:10.555Z,16.42
2017-07-06T03:07:12.453Z,16.50
2017-07-06T03:08:14.291Z,16.43
2017-07-06T03:09:16.124Z,16.50
2017-07-06T03:10:17.999Z,16.49
2017-07-06T03:11:19.887Z,16.58
2017-07-06T03:12:21.785Z,16.56
2017-07-06T03:13:35.927Z,16.67
2017-07-06T03:14:37.799Z,16.63
2017-07-06T03:15:39.669Z,16.60
2017-07-06T03:16:41.546Z,16.60
2017-07-06T03:17:43.356Z,16.61
2017-07-06T03:18:45.193Z,16.60
2017-07-06T03:19:47.090Z,16.61
2017-07-06T03:20:48.966Z,16.70
2017-07-06T03:21:50.859Z,16.66
2017-07-06T03:23:05.033Z,16.83
2017-07-06T03:24:06.930Z,16.94
2017-07-06T03:25:08.809Z,17.01
2017-07-06T03:26:10.707Z,17.16
2017-07-06T03:27:12.548Z,17.28
2017-07-06T03:28:14.385Z,17.26
2017-07-06T03:29:16.263Z,17.46
2017-07-06T03:30:18.157Z,17.58
2017-07-06T03:31:20.060Z,17.74
2017-07-06T03:32:34.238Z,17.81
2017-07-06T03:33:36.104Z,17.87
2017-07-06T03:34:37.976Z,18.17
2017-07-06T03:35:39.858Z,18.25
2017-07-06T03:36:41.696Z,18.50
2017-07-06T03:37:43.508Z,18.60
2017-07-06T03:38:45.387Z,18.80
2017-07-06T03:39:47.284Z,18.87
2017-07-06T03:40:49.179Z,18.99
2017-07-06T03:42:03.383Z,19.06
2017-07-06T03:43:05.285Z,19.26
2017-07-06T03:44:07.163Z,19.41
2017-07-06T03:45:09.037Z,19.54
2017-07-06T03:46:10.851Z,19.68
2017-07-06T03:47:12.666Z,19.80
2017-07-06T03:48:14.566Z,19.98
2017-07-06T03:49:16.445Z,20.08
2017-07-06T03:50:18.344Z,20.17
2017-07-06T03:51:32.494Z,20.24
2017-07-06T03:52:34.392Z,20.54
2017-07-06T03:53:36.293Z,20.61
2017-07-06T03:54:38.196Z,20.73
2017-07-06T03:55:40.037Z,20.84
2017-07-06T03:56:41.853Z,20.87
2017-07-06T03:57:43.757Z,21.04
2017-07-06T03:58:45.653Z,21.01
2017-07-06T03:59:47.524Z,21.14
2017-07-06T04:01:01.676Z,21.12
2017-07-06T04:02:03.620Z,21.29
2017-07-06T04:03:05.468Z,21.29
2017-07-06T04:04:07.343Z,21.32
2017-07-06T04:05:09.187Z,21.38
2017-07-06T04:06:10.999Z,21.56
2017-07-06T04:07:12.902Z,21.54
2017-07-06T04:08:14.804Z,21.71
2017-07-06T04:09:16.695Z,21.84
2017-07-06T04:10:30.851Z,22.02
2017-07-06T04:11:32.726Z,22.09
2017-07-06T04:12:34.627Z,22.15
2017-07-06T04:13:36.509Z,22.25
2017-07-06T04:14:38.351Z,22.25
2017-07-06T04:15:40.165Z,22.40
2017-07-06T04:16:42.066Z,22.39
2017-07-06T04:17:43.966Z,22.57
2017-07-06T04:18:45.869Z,22.72
2017-07-06T04:20:00.048Z,22.73
2017-07-06T04:21:01.952Z,23.01
2017-07-06T04:22:03.860Z,23.10
2017-07-06T04:23:05.762Z,23.27
2017-07-06T04:24:07.601Z,23.46
2017-07-06T04:25:09.415Z,23.55
2017-07-06T04:26:11.293Z,23.66
2017-07-06T04:27:13.196Z,23.70
2017-07-06T04:28:15.094Z,23.84
2017-07-06T04:29:29.331Z,24.05
2017-07-06T04:30:31.232Z,24.06
2017-07-06T04:31:33.133Z,24.13
2017-07-06T04:32:35.013Z,24.15
2017-07-06T04:33:36.855Z,24.28
2017-07-06T04:34:38.675Z,24.37
2017-07-06T04:35:40.581Z,24.45
2017-07-06T04:36:42.480Z,24.55
2017-07-06T04:37:44.387Z,24.67
2017-07-06T04:38:58.587Z,24.83
2017-07-06T04:40:00.501Z,24.85
2017-07-06T04:41:02.388Z,24.95
2017-07-06T04:42:04.287Z,25.06
2017-07-06T04:43:06.115Z,25.09
2017-07-06T04:44:07.956Z,25.15
2017-07-06T04:45:09.841Z,25.33
2017-07-06T04:46:11.751Z,25.42
2017-07-06T04:47:13.654Z,25.51
2017-07-06T04:48:27.837Z,25.72
2017-07-06T04:49:29.743Z,25.85
2017-07-06T04:50:31.649Z,25.99
2017-07-06T04:51:33.556Z,26.13
2017-07-06T04:52:35.405Z,26.32
2017-07-06T04:53:37.269Z,26.40
2017-07-06T04:54:39.121Z,26.47
2017-07-06T04:55:41.023Z,26.65
2017-07-06T04:56:42.898Z,26.70
2017-07-06T04:57:57.054Z,26.76
2017-07-06T04:58:58.960Z,26.88
2017-07-06T05:00:00.860Z,26.85
2017-07-06T05:01:02.744Z,26.88
2017-07-06T05:02:04.562Z,26.94
2017-07-06T05:03:06.386Z,26.97
2017-07-06T05:04:08.283Z,26.99
2017-07-06T05:05:10.189Z,27.07
2017-07-06T05:06:12.095Z,27.22
2017-07-06T05:07:26.244Z,27.28
2017-07-06T05:08:28.124Z,27.36
2017-07-06T05:09:30.003Z,27.32
2017-07-06T05:10:31.886Z,27.37
2017-07-06T05:11:33.700Z,27.43
2017-07-06T05:12:35.519Z,27.47
2017-07-06T05:13:37.407Z,27.60
2017-07-06T05:14:39.312Z,27.60
2017-07-06T05:15:41.217Z,27.66
2017-07-06T05:16:55.375Z,27.72
2017-07-06T05:17:57.285Z,27.81
2017-07-06T05:18:59.197Z,28.03
2017-07-06T05:20:01.101Z,27.99
2017-07-06T05:21:02.918Z,28.07
2017-07-06T05:22:04.741Z,28.06
2017-07-06T05:23:06.645Z,28.14
2017-07-06T05:24:08.531Z,28.09
2017-07-06T05:25:10.440Z,28.12
2017-07-06T05:26:24.620Z,28.15
2017-07-06T05:27:26.523Z,28.04
2017-07-06T05:28:28.408Z,28.04
2017-07-06T05:29:30.311Z,28.06
2017-07-06T05:30:32.155Z,28.11
2017-07-06T05:31:33.999Z,28.00
2017-07-06T05:32:35.898Z,28.03
2017-07-06T05:33:37.797Z,27.90
2017-07-06T05:34:39.672Z,27.74
2017-07-06T05:35:53.835Z,27.57
2017-07-06T05:36:55.742Z,27.57
2017-07-06T05:37:57.653Z,27.65
2017-07-06T05:38:59.557Z,27.50
2017-07-06T05:40:01.406Z,27.46
2017-07-06T05:41:03.243Z,27.41
2017-07-06T05:42:05.130Z,27.32
2017-07-06T05:43:07.025Z,27.24
2017-07-06T05:44:08.902Z,27.04
2017-07-06T05:45:23.061Z,26.88
2017-07-06T05:46:24.959Z,26.72
2017-07-06T05:47:26.844Z,26.54
2017-07-06T05:48:28.719Z,26.29
2017-07-06T05:49:30.562Z,26.20
2017-07-06T05:50:32.396Z,26.12
2017-07-06T05:51:34.274Z,25.98
2017-07-06T05:52:36.154Z,25.91
2017-07-06T05:53:38.051Z,25.82
2017-07-06T05:54:52.205Z,25.72
2017-07-06T05:55:54.083Z,25.58
2017-07-06T05:56:55.983Z,25.51
2017-07-06T05:57:57.898Z,25.27
2017-07-06T05:58:59.706Z,25.14
2017-07-06T06:00:01.524Z,25.10
2017-07-06T06:01:03.404Z,25.05
2017-07-06T06:02:05.286Z,24.96
2017-07-06T06:03:07.193Z,24.90
2017-07-06T06:04:21.372Z,24.83
2017-07-06T06:05:23.279Z,24.68
2017-07-06T06:06:25.179Z,24.62
2017-07-06T06:07:27.060Z,24.50
2017-07-06T06:08:28.905Z,24.25
2017-07-06T06:09:30.716Z,24.06
2017-07-06T06:10:32.595Z,23.95
2017-07-06T06:11:34.494Z,23.66
2017-07-06T06:12:36.370Z,23.54
2017-07-06T06:13:50.526Z,23.43
2017-07-06T06:14:52.423Z,23.39
2017-07-06T06:15:54.304Z,23.46
2017-07-06T06:16:56.180Z,23.43
2017-07-06T06:17:58.003Z,23.48
2017-07-06T06:18:59.994Z,23.53
2017-07-06T06:20:01.873Z,23.53
2017-07-06T06:21:03.753Z,23.53
2017-07-06T06:22:05.660Z,23.46
2017-07-06T06:23:19.874Z,23.35
2017-07-06T06:24:21.791Z,23.43
2017-07-06T06:25:23.666Z,23.51
2017-07-06T06:26:25.547Z,23.61
2017-07-06T06:27:27.393Z,23.60
2017-07-06T06:28:29.230Z,23.60
2017-07-06T06:29:31.111Z,23.51
2017-07-06T06:30:33.086Z,23.58
2017-07-06T06:31:34.976Z,23.55
2017-07-06T06:32:49.129Z,23.61
2017-07-06T06:33:51.031Z,23.75
2017-07-06T06:34:52.936Z,23.85
2017-07-06T06:35:54.841Z,24.03
2017-07-06T06:36:56.684Z,24.09
2017-07-06T06:37:58.498Z,24.13
2017-07-06T06:39:00.378Z,24.15
2017-07-06T06:40:02.257Z,24.13
2017-07-06T06:41:04.133Z,24.18
2017-07-06T06:42:18.287Z,24.30
2017-07-06T06:43:20.163Z,24.52
2017-07-06T06:44:22.046Z,24.73
2017-07-06T06:45:23.949Z,24.84
2017-07-06T06:46:25.791Z,25.06
2017-07-06T06:47:27.631Z,25.24
2017-07-06T06:48:29.513Z,25.43
2017-07-06T06:49:31.406Z,25.62
2017-07-06T06:50:33.289Z,25.73
2017-07-06T06:51:47.473Z,25.95
2017-07-06T06:52:49.379Z,26.20
2017-07-06T06:53:51.283Z,26.28
2017-07-06T06:54:53.185Z,26.20
2017-07-06T06:55:55.012Z,26.10
2017-07-06T06:56:56.852Z,26.01
2017-07-06T06:57:58.759Z,26.10
2017-07-06T06:59:00.634Z,26.12
2017-07-06T07:00:02.511Z,26.09
2017-07-06T07:01:16.669Z,26.29
2017-07-06T07:02:18.577Z,26.47
2017-07-06T07:03:20.472Z,26.60
2017-07-06T07:04:22.353Z,26.54
2017-07-06T07:05:24.173Z,26.32
2017-07-06T07:06:26.018Z,26.17
2017-07-06T07:07:27.896Z,26.26
2017-07-06T07:08:29.804Z,26.30
2017-07-06T07:09:31.707Z,26.26
2017-07-06T07:10:45.870Z,26.33
2017-07-06T07:11:47.749Z,26.43
2017-07-06T07:12:49.631Z,26.51
2017-07-06T07:13:51.541Z,26.60
2017-07-06T07:14:53.385Z,26.60
2017-07-06T07:15:55.228Z,26.50
2017-07-06T07:16:57.108Z,26.30
2017-07-06T07:17:59.008Z,26.21
2017-07-06T07:19:00.915Z,26.25
2017-07-06T07:20:15.100Z,26.26
2017-07-06T07:21:17.004Z,26.44
2017-07-06T07:22:18.908Z,26.44
2017-07-06T07:23:20.814Z,26.45
2017-07-06T07:24:22.665Z,26.58
2017-07-06T07:25:24.510Z,26.70
2017-07-06T07:26:26.413Z,26.85
2017-07-06T07:27:28.311Z,26.82
2017-07-06T07:28:30.200Z,26.87
2017-07-06T07:29:44.429Z,26.81
2017-07-06T07:30:46.309Z,26.65
2017-07-06T07:31:48.194Z,26.47
2017-07-06T07:32:50.106Z,26.44
2017-07-06T07:33:51.947Z,26.33
2017-07-06T07:34:53.773Z,26.33
2017-07-06T07:35:55.677Z,26.13
2017-07-06T07:36:57.580Z,25.73
2017-07-06T07:37:59.456Z,25.69
2017-07-06T07:39:13.641Z,25.30
2017-07-06T07:40:15.539Z,25.27
2017-07-06T07:41:17.423Z,25.10
2017-07-06T07:42:19.328Z,25.10
2017-07-06T07:43:21.151Z,25.06
2017-07-06T07:44:22.994Z,25.06
2017-07-06T07:45:24.903Z,25.02
2017-07-06T07:46:26.777Z,25.00
2017-07-06T07:47:28.681Z,25.03
2017-07-06T07:48:42.866Z,25.20
2017-07-06T07:49:44.763Z,25.28
2017-07-06T07:50:46.646Z,25.51
2017-07-06T07:51:48.555Z,25.65
2017-07-06T07:52:50.395Z,25.94
2017-07-06T07:53:52.214Z,26.21
2017-07-06T07:54:54.131Z,26.43
2017-07-06T07:55:56.034Z,26.69
2017-07-06T07:56:57.952Z,26.76
2017-07-06T07:58:12.132Z,26.89
2017-07-06T07:59:14.050Z,27.04
2017-07-06T08:00:15.978Z,27.13
2017-07-06T08:01:17.900Z,27.12
2017-07-06T08:02:19.778Z,27.12
2017-07-06T08:03:21.653Z,27.17
2017-07-06T08:04:23.574Z,27.25
2017-07-06T08:05:25.506Z,27.31
2017-07-06T08:06:27.441Z,27.34
2017-07-06T08:07:41.675Z,27.25
2017-07-06T08:08:43.578Z,27.14
2017-07-06T08:09:45.500Z,27.12
2017-07-06T08:10:47.426Z,27.00
2017-07-06T08:11:49.312Z,27.00
2017-07-06T08:12:51.201Z,26.89
2017-07-06T08:13:53.112Z,26.84
2017-07-06T08:14:55.006Z,26.81
2017-07-06T08:15:56.930Z,26.66
2017-07-06T08:17:11.152Z,26.54
2017-07-06T08:18:13.077Z,26.33
2017-07-06T08:19:14.981Z,26.07
2017-07-06T08:20:16.873Z,25.82
2017-07-06T08:21:18.723Z,25.72
2017-07-06T08:22:20.562Z,25.79
2017-07-06T08:23:22.469Z,25.85
2017-07-06T08:24:24.373Z,25.95
2017-07-06T08:25:26.297Z,26.23
2017-07-06T08:26:40.505Z,26.32
2017-07-06T08:27:42.409Z,26.44
2017-07-06T08:28:44.314Z,26.28
2017-07-06T08:29:46.225Z,26.07
2017-07-06T08:30:48.040Z,26.10
2017-07-06T08:31:49.881Z,26.01
2017-07-06T08:32:51.784Z,26.29
2017-07-06T08:33:53.662Z,26.43
2017-07-06T08:34:55.553Z,26.45
2017-07-06T08:36:09.742Z,26.51
2017-07-06T08:37:11.623Z,26.69
2017-07-06T08:38:13.524Z,26.50
2017-07-06T08:39:15.409Z,26.20
2017-07-06T08:40:17.253Z,26.02
2017-07-06T08:41:19.094Z,26.10
2017-07-06T08:42:21.024Z,26.06
2017-07-06T08:43:22.934Z,26.15
2017-07-06T08:44:24.813Z,26.23
2017-07-06T08:45:38.997Z,26.33
2017-07-06T08:46:40.898Z,26.58
2017-07-06T08:47:42.800Z,26.62
2017-07-06T08:48:44.680Z,26.82
2017-07-06T08:49:46.506Z,26.97
2017-07-06T08:50:48.346Z,27.07
2017-07-06T08:51:50.226Z,27.21
2017-07-06T08:52:52.127Z,27.21
2017-07-06T08:53:54.009Z,27.13
2017-07-06T08:55:08.170Z,27.13
2017-07-06T08:56:10.043Z,27.25
2017-07-06T08:57:11.920Z,27.24
2017-07-06T08:58:13.808Z,27.09
2017-07-06T08:59:15.655Z,26.84
2017-07-06T09:00:17.496Z,26.70
2017-07-06T09:01:19.400Z,26.45
2017-07-06T09:02:21.302Z,26.40
2017-07-06T09:03:23.205Z,26.62
2017-07-06T09:04:37.368Z,26.94
2017-07-06T09:05:39.278Z,27.09
2017-07-06T09:06:41.180Z,27.27
2017-07-06T09:07:43.083Z,27.50
2017-07-06T09:08:44.924Z,27.60
2017-07-06T09:09:46.746Z,27.66
2017-07-06T09:10:48.678Z,27.72
2017-07-06T09:11:50.562Z,27.65
2017-07-06T09:12:52.444Z,27.47
2017-07-06T09:14:06.605Z,27.31
2017-07-06T09:15:08.541Z,27.24
2017-07-06T09:16:10.466Z,26.94
2017-07-06T09:17:12.404Z,26.82
2017-07-06T09:18:14.268Z,26.92
2017-07-06T09:19:16.137Z,26.82
2017-07-06T09:20:18.045Z,26.75
2017-07-06T09:21:19.941Z,26.84
2017-07-06T09:22:21.848Z,26.82
2017-07-06T09:23:36.070Z,27.00
2017-07-06T09:24:37.969Z,26.99
2017-07-06T09:25:39.898Z,27.02
2017-07-06T09:26:41.789Z,27.02
2017-07-06T09:27:43.631Z,27.04
2017-07-06T09:28:45.495Z,27.04
2017-07-06T09:29:47.426Z,27.02
2017-07-06T09:30:49.358Z,27.00
2017-07-06T09:31:51.267Z,27.12
2017-07-06T09:33:05.454Z,27.22
2017-07-06T09:34:07.334Z,27.55
2017-07-06T09:35:09.239Z,28.03
2017-07-06T09:36:11.155Z,28.22
2017-07-06T09:37:13.005Z,28.27
2017-07-06T09:38:14.845Z,28.18
2017-07-06T09:39:16.728Z,28.17
2017-07-06T09:40:18.636Z,27.92
2017-07-06T09:41:20.544Z,27.90
2017-07-06T09:42:34.730Z,27.74
2017-07-06T09:43:36.619Z,27.72
2017-07-06T09:44:38.541Z,27.70
2017-07-06T09:45:40.444Z,27.62
2017-07-06T09:46:42.269Z,27.51
2017-07-06T09:47:44.138Z,27.50
2017-07-06T09:48:46.098Z,27.57
2017-07-06T09:49:48.055Z,27.55
2017-07-06T09:50:50.014Z,27.54
2017-07-06T09:52:04.226Z,27.39
2017-07-06T09:53:06.151Z,27.49
2017-07-06T09:54:08.030Z,27.65
2017-07-06T09:55:09.921Z,27.75
2017-07-06T09:56:11.777Z,27.90
2017-07-06T09:57:13.630Z,28.19
2017-07-06T09:58:15.555Z,28.41
2017-07-06T09:59:17.465Z,28.24
2017-07-06T10:00:19.391Z,27.99
2017-07-06T10:01:33.579Z,27.77
2017-07-06T10:02:35.484Z,27.63
2017-07-06T10:03:37.440Z,27.43
2017-07-06T10:04:39.378Z,27.14
2017-07-06T10:05:41.246Z,27.14
2017-07-06T10:06:43.121Z,27.29
2017-07-06T10:07:45.064Z,27.37
2017-07-06T10:08:46.970Z,27.32
2017-07-06T10:09:48.895Z,27.44
2017-07-06T10:11:03.113Z,27.41
2017-07-06T10:12:05.015Z,27.40
2017-07-06T10:13:06.909Z,27.37
2017-07-06T10:14:08.823Z,27.36
2017-07-06T10:15:10.886Z,27.50
2017-07-06T10:16:12.716Z,27.67
2017-07-06T10:17:14.638Z,27.99
2017-07-06T10:18:16.584Z,27.87
2017-07-06T10:19:18.524Z,27.78
2017-07-06T10:20:32.726Z,27.70
2017-07-06T10:21:34.672Z,27.92
2017-07-06T10:22:36.596Z,28.04
2017-07-06T10:23:38.501Z,28.37
2017-07-06T10:24:40.329Z,28.48
2017-07-06T10:25:42.148Z,28.56
2017-07-06T10:26:44.052Z,28.56
2017-07-06T10:27:45.927Z,28.71
2017-07-06T10:28:47.810Z,28.70
2017-07-06T10:30:01.969Z,28.55
2017-07-06T10:31:03.854Z,28.31
2017-07-06T10:32:05.765Z,28.14
2017-07-06T10:33:07.668Z,27.94
2017-07-06T10:34:09.498Z,27.70
2017-07-06T10:35:11.340Z,27.75
2017-07-06T10:36:13.245Z,27.96
2017-07-06T10:37:15.125Z,28.14
2017-07-06T10:38:17.027Z,28.31
2017-07-06T10:39:31.190Z,28.68
2017-07-06T10:40:33.098Z,28.78
2017-07-06T10:41:35.027Z,28.93
2017-07-06T10:42:36.940Z,29.12
2017-07-06T10:43:38.788Z,29.24
2017-07-06T10:44:40.609Z,29.34
2017-07-06T10:45:42.516Z,29.33
2017-07-06T10:46:44.402Z,29.30
2017-07-06T10:47:46.305Z,29.21
2017-07-06T10:49:00.488Z,29.19
2017-07-06T10:50:02.366Z,29.21
2017-07-06T10:51:04.246Z,29.19
2017-07-06T10:52:06.135Z,29.19
2017-07-06T10:53:08.000Z,29.26
2017-07-06T10:54:09.824Z,29.36
2017-07-06T10:55:11.753Z,29.30
2017-07-06T10:56:13.660Z,29.15
2017-07-06T10:57:15.581Z,29.02
2017-07-06T10:58:29.744Z,28.77
2017-07-06T10:59:31.634Z,28.90
2017-07-06T11:00:33.545Z,28.96
2017-07-06T11:01:35.434Z,29.02
2017-07-06T11:02:37.279Z,28.93
2017-07-06T11:03:39.095Z,28.88
2017-07-06T11:04:40.975Z,28.73
2017-07-06T11:05:42.886Z,28.46
2017-07-06T11:06:44.757Z,28.22
2017-07-06T11:07:58.922Z,28.12
2017-07-06T11:09:00.829Z,28.12
2017-07-06T11:10:02.734Z,28.24
2017-07-06T11:11:04.634Z,28.25
2017-07-06T11:12:06.461Z,28.22
2017-07-06T11:13:08.298Z,28.09
2017-07-06T11:14:10.182Z,27.96
2017-07-06T11:15:12.082Z,27.67
2017-07-06T11:16:13.987Z,27.51
2017-07-06T11:17:28.147Z,27.59
2017-07-06T11:18:30.020Z,27.72
2017-07-06T11:19:31.900Z,27.87
2017-07-06T11:20:33.865Z,27.81
2017-07-06T11:21:35.716Z,27.94
2017-07-06T11:22:37.558Z,28.06
2017-07-06T11:23:39.465Z,28.09
2017-07-06T11:24:41.344Z,28.15
2017-07-06T11:25:43.336Z,28.31
2017-07-06T11:26:57.605Z,28.58
2017-07-06T11:27:59.576Z,28.66
2017-07-06T11:29:01.446Z,28.92
2017-07-06T11:30:03.478Z,29.05
2017-07-06T11:31:05.398Z,29.09
2017-07-06T11:32:07.240Z,29.16
2017-07-06T11:33:09.674Z,29.23
2017-07-06T11:34:11.871Z,29.31
2017-07-06T11:35:13.793Z,29.46
2017-07-06T11:36:27.977Z,29.55
2017-07-06T11:37:29.883Z,29.74
2017-07-06T11:38:31.771Z,29.87
2017-07-06T11:39:33.679Z,29.94
2017-07-06T11:40:35.600Z,29.86
2017-07-06T11:41:37.483Z,29.67
2017-07-06T11:42:39.369Z,29.46
2017-07-06T11:43:41.250Z,29.15
2017-07-06T11:44:43.156Z,29.18
2017-07-06T11:45:57.345Z,29.31
2017-07-06T11:46:59.252Z,29.43
2017-07-06T11:48:01.138Z,29.46
2017-07-06T11:49:03.042Z,29.53
2017-07-06T11:50:04.893Z,29.85
2017-07-06T11:51:06.739Z,30.05
2017-07-06T11:52:08.646Z,30.31
2017-07-06T11:53:10.569Z,30.45
2017-07-06T11:54:12.445Z,30.77
2017-07-06T11:55:26.605Z,30.82
2017-07-06T11:56:28.491Z,30.91
2017-07-06T11:57:30.393Z,30.94
2017-07-06T11:58:32.278Z,30.91
2017-07-06T11:59:34.103Z,30.91
2017-07-06T12:00:35.914Z,30.98
2017-07-06T12:01:37.799Z,30.82
2017-07-06T12:02:39.705Z,30.57
2017-07-06T12:03:41.583Z,30.27
2017-07-06T12:04:55.746Z,29.70
2017-07-06T12:05:57.653Z,29.57
2017-07-06T12:06:59.558Z,29.16
2017-07-06T12:08:01.439Z,29.23
2017-07-06T12:09:03.291Z,29.08
2017-07-06T12:10:05.110Z,29.02
2017-07-06T12:11:07.021Z,28.92
2017-07-06T12:12:08.932Z,28.89
2017-07-06T12:13:10.832Z,28.71
2017-07-06T12:14:24.994Z,28.66
2017-07-06T12:15:26.902Z,28.58
2017-07-06T12:16:28.837Z,28.61
2017-07-06T12:17:30.743Z,28.64
2017-07-06T12:18:32.561Z,28.59
2017-07-06T12:19:34.407Z,28.40
2017-07-06T12:20:36.389Z,28.31
2017-07-06T12:21:38.316Z,28.40
2017-07-06T12:22:40.248Z,28.39
2017-07-06T12:23:54.426Z,28.58
2017-07-06T12:24:56.325Z,28.81
2017-07-06T12:25:58.206Z,28.98
2017-07-06T12:27:00.143Z,29.19
2017-07-06T12:28:01.954Z,29.34
2017-07-06T12:29:03.796Z,29.43
2017-07-06T12:30:05.705Z,29.51
2017-07-06T12:31:07.606Z,29.48
2017-07-06T12:32:09.489Z,29.31
2017-07-06T12:33:23.747Z,29.37
2017-07-06T12:34:25.653Z,29.55
2017-07-06T12:35:27.534Z,29.70
2017-07-06T12:36:29.416Z,29.90
2017-07-06T12:37:31.245Z,29.78
2017-07-06T12:38:33.082Z,29.60
2017-07-06T12:39:34.969Z,29.34
2017-07-06T12:40:36.891Z,29.15
2017-07-06T12:41:38.772Z,28.90
2017-07-06T12:42:52.981Z,28.68
2017-07-06T12:43:54.893Z,28.46
2017-07-06T12:44:56.802Z,28.31
2017-07-06T12:45:58.710Z,28.58
2017-07-06T12:47:00.559Z,28.58
2017-07-06T12:48:02.376Z,28.77
2017-07-06T12:49:04.290Z,28.73
2017-07-06T12:50:06.188Z,28.92
2017-07-06T12:51:08.095Z,29.02
2017-07-06T12:52:22.254Z,28.96
2017-07-06T12:53:24.137Z,28.96
2017-07-06T12:54:26.065Z,28.93
2017-07-06T12:55:27.972Z,28.80
2017-07-06T12:56:29.823Z,28.74
2017-07-06T12:57:31.647Z,28.74
2017-07-06T12:58:33.489Z,28.92
2017-07-06T12:59:35.313Z,28.76
2017-07-06T13:00:37.157Z,28.64
2017-07-06T13:01:51.397Z,28.59
2017-07-06T13:02:53.303Z,28.67
2017-07-06T13:03:55.289Z,28.71
2017-07-06T13:04:57.386Z,28.88
2017-07-06T13:05:59.465Z,29.00
2017-07-06T13:07:01.334Z,29.18
2017-07-06T13:08:03.241Z,29.42
2017-07-06T13:09:05.172Z,29.57
2017-07-06T13:10:07.076Z,29.67
2017-07-06T13:11:21.265Z,29.86
2017-07-06T13:12:23.278Z,29.85
2017-07-06T13:13:25.143Z,29.92
2017-07-06T13:14:27.028Z,30.05
2017-07-06T13:15:28.872Z,30.00
2017-07-06T13:16:30.686Z,29.86
2017-07-06T13:17:32.656Z,29.70
2017-07-06T13:18:34.638Z,29.73
2017-07-06T13:19:36.520Z,29.71
2017-07-06T13:20:50.887Z,29.86
2017-07-06T13:21:52.851Z,29.86
2017-07-06T13:22:54.733Z,29.74
2017-07-06T13:23:56.786Z,29.73
2017-07-06T13:24:58.696Z,29.53
2017-07-06T13:26:00.533Z,29.45
2017-07-06T13:27:02.420Z,29.23
2017-07-06T13:28:04.318Z,28.88
2017-07-06T13:29:06.231Z,28.68
2017-07-06T13:30:20.393Z,28.27
2017-07-06T13:31:22.272Z,28.18
2017-07-06T13:32:24.150Z,28.18
2017-07-06T13:33:26.027Z,28.34
2017-07-06T13:34:27.851Z,28.41